Aérodrome :
LOGIN :

S'inscrire | Disclaimer

   EN    FR    IT 

 










Légende :    VFR   VFR Marginal   IFR   IFR Intensif   IFR Très Intensif
Visi : 
Plafond : 
>= 8 km
>= 3000ft
5 à 8 km
1000 à 3000 ft
1500m à 5 km
500 à 1000 ft
800 à 1500m
200 à 500 ft
< 800m
< 200 ft
Symboles :   Orages  Brouillard  Fortes neiges  Fortes précipitations  Vent > 20 kt
SIGMETs :   Divers  Orages  Givrage  Turbulence  Onde Orograph.  Cendres Volcan.






- Altitude de l'aérodrome : 220 ft
- Code IATA : CWL


EGFF - Cardiff Rhoose

DERNIER METAR :
  • 170320Z AUTO 23015G28KT 9999 VCTS FEW029/// SCT035/// BKN048/// //////CB 07/03 Q1003

METARs EXPIRÉS :
  • 170250Z AUTO 23016KT 9999 SCT032/// BKN040/// //////CB 07/03 Q1004
  • 170220Z AUTO 23018KT 9999 SCT038/// //////TCU 07/03 Q1004
  • 170150Z AUTO 24017G30KT 9999 BKN033 OVC042 07/03 Q1004
  • 170120Z AUTO 24020G32KT 9999 BKN033 07/03 Q1004
  • 170050Z AUTO 24022G36KT 9999 BKN032 BKN040 07/03 Q1003
  • 170020Z AUTO 24021G31KT 9999 BKN043 08/03 Q1003

TAF TAF EGFF
Valide du 17 à 00h jusqu'au 18 à 00h UTC


162254Z 1700/1724 25020G32KT 9999 FEW010 SCT030
TEMPO 1700/1712 25032G42KT 6000 SHRA
PROB30
TEMPO 1700/1712 4000 +SHRA +TSRAGS BKN010 BKN020CB
BECMG 1709/1712 26018KT
TEMPO 1712/1724 28022G32KT 6000 SHRA
ATIS : +44 1446 729 319



MET'MAP, la Météo Aéronautique d'un coup d'oeil ! - Copyright ORBIFLY Décembre 2007 - Disclaimer

ORBIFLY MET'MAP TEAM :

Programmation & Développement : Alexandra Zaïnal
Sur une idée originale de : Baudouin d'Aumeries
Assistance à la programmation : Marc-Olivier Méhu
Soutien technique & logistique : Manuel Goepfert

Contact : metmap@orbifly.com




SOURCES & CREDITS :

   NOAA